createdAt,value
2017-02-21T00:01:01.836Z,945.0
2017-02-21T00:02:09.929Z,945.0
2017-02-21T00:03:18.026Z,945.0
2017-02-21T00:04:26.160Z,944.9
2017-02-21T00:05:34.197Z,944.9
2017-02-21T00:06:42.338Z,944.9
2017-02-21T00:07:50.424Z,944.8
2017-02-21T00:08:58.457Z,944.8
2017-02-21T00:10:06.689Z,944.8
2017-02-21T00:11:14.696Z,944.8
2017-02-21T00:12:22.725Z,944.9
2017-02-21T00:13:30.815Z,944.8
2017-02-21T00:14:38.903Z,944.9
2017-02-21T00:15:47.046Z,944.9
2017-02-21T00:16:55.073Z,944.9
2017-02-21T00:18:03.285Z,944.9
2017-02-21T00:19:11.269Z,944.9
2017-02-21T00:20:19.362Z,944.8
2017-02-21T00:21:27.558Z,944.8
2017-02-21T00:22:35.535Z,944.8
2017-02-21T00:23:43.626Z,944.8
2017-02-21T00:24:51.714Z,944.8
2017-02-21T00:25:59.807Z,944.8
2017-02-21T00:27:08.012Z,944.8
2017-02-21T00:28:16.133Z,944.9
2017-02-21T00:29:24.207Z,944.9
2017-02-21T00:30:32.165Z,944.9
2017-02-21T00:31:40.252Z,944.9
2017-02-21T00:32:48.393Z,944.9
2017-02-21T00:33:56.430Z,944.9
2017-02-21T00:35:04.520Z,944.9
2017-02-21T00:36:12.605Z,944.8
2017-02-21T00:37:20.699Z,944.7
2017-02-21T00:38:28.903Z,944.6
2017-02-21T00:39:36.868Z,944.7
2017-02-21T00:40:44.955Z,944.7
2017-02-21T00:41:53.043Z,944.6
2017-02-21T00:43:01.228Z,944.6
2017-02-21T00:44:09.277Z,944.6
2017-02-21T00:45:17.314Z,944.6
2017-02-21T00:46:25.401Z,944.6
2017-02-21T00:47:33.496Z,944.6
2017-02-21T00:48:41.590Z,944.6
2017-02-21T00:49:49.743Z,944.6
2017-02-21T00:50:57.776Z,944.5
2017-02-21T00:52:05.843Z,944.6
2017-02-21T00:53:13.941Z,944.6
2017-02-21T00:54:22.209Z,944.6
2017-02-21T00:55:30.395Z,944.6
2017-02-21T00:56:38.204Z,944.7
2017-02-21T00:57:46.296Z,944.7
2017-02-21T00:58:54.503Z,944.7
2017-02-21T01:00:02.470Z,944.6
2017-02-21T01:01:10.683Z,944.6
2017-02-21T01:02:18.645Z,944.5
2017-02-21T01:03:26.733Z,944.5
2017-02-21T01:04:34.827Z,944.6
2017-02-21T01:05:42.915Z,944.5
2017-02-21T01:06:51.060Z,944.5
2017-02-21T01:07:59.093Z,944.5
2017-02-21T01:09:07.182Z,944.5
2017-02-21T01:10:15.449Z,944.5
2017-02-21T01:11:23.364Z,944.5
2017-02-21T01:12:31.579Z,944.4
2017-02-21T01:13:39.545Z,944.4
2017-02-21T01:14:47.687Z,944.5
2017-02-21T01:15:55.720Z,944.5
2017-02-21T01:17:03.863Z,944.5
2017-02-21T01:18:12.024Z,944.4
2017-02-21T01:19:19.994Z,944.4
2017-02-21T01:20:28.084Z,944.4
2017-02-21T01:21:36.343Z,944.4
2017-02-21T01:22:44.272Z,944.4
2017-02-21T01:23:52.411Z,944.4
2017-02-21T01:25:00.599Z,944.4
2017-02-21T01:26:08.532Z,944.5
2017-02-21T01:27:16.635Z,944.4
2017-02-21T01:28:24.719Z,944.4
2017-02-21T01:29:32.931Z,944.4
2017-02-21T01:30:40.955Z,944.4
2017-02-21T01:31:48.986Z,944.5
2017-02-21T01:32:57.266Z,944.4
2017-02-21T01:34:05.174Z,944.5
2017-02-21T01:35:13.316Z,944.4
2017-02-21T01:36:21.358Z,944.5
2017-02-21T01:37:29.446Z,944.4
2017-02-21T01:38:37.540Z,944.4
2017-02-21T01:39:45.621Z,944.4
2017-02-21T01:40:53.837Z,944.4
2017-02-21T01:42:01.830Z,944.4
2017-02-21T01:43:09.887Z,944.5
2017-02-21T01:44:17.984Z,944.4
2017-02-21T01:45:26.071Z,944.5
2017-02-21T01:46:34.216Z,944.5
2017-02-21T01:47:42.245Z,944.5
2017-02-21T01:48:50.347Z,944.5
2017-02-21T01:49:58.430Z,944.4
2017-02-21T01:51:06.519Z,944.4
2017-02-21T01:52:14.730Z,944.5
2017-02-21T01:53:22.849Z,944.4
2017-02-21T01:54:30.929Z,944.4
2017-02-21T01:55:38.881Z,944.4
2017-02-21T01:56:46.968Z,944.4
2017-02-21T01:57:55.117Z,944.4
2017-02-21T01:59:03.154Z,944.4
2017-02-21T02:00:11.245Z,944.4
2017-02-21T02:01:19.335Z,944.4
2017-02-21T02:02:27.538Z,944.3
2017-02-21T02:03:35.567Z,944.3
2017-02-21T02:04:43.645Z,944.3
2017-02-21T02:05:51.688Z,944.3
2017-02-21T02:06:59.773Z,944.3
2017-02-21T02:08:07.866Z,944.3
2017-02-21T02:09:16.010Z,944.3
2017-02-21T02:10:24.044Z,944.3
2017-02-21T02:11:32.131Z,944.3
2017-02-21T02:12:40.222Z,944.2
2017-02-21T02:13:48.307Z,944.2
2017-02-21T02:14:56.538Z,944.2
2017-02-21T02:16:04.509Z,944.2
2017-02-21T02:17:12.583Z,944.2
2017-02-21T02:18:20.725Z,944.2
2017-02-21T02:19:28.812Z,944.2
2017-02-21T02:20:36.913Z,944.2
2017-02-21T02:21:44.946Z,944.2
2017-02-21T02:22:53.028Z,944.1
2017-02-21T02:24:01.124Z,944.1
2017-02-21T02:25:09.310Z,944.1
2017-02-21T02:26:17.363Z,944.1
2017-02-21T02:27:25.397Z,944.1
2017-02-21T02:28:33.485Z,944.1
2017-02-21T02:29:41.773Z,944.1
2017-02-21T02:30:49.657Z,944.1
2017-02-21T02:31:57.870Z,944.2
2017-02-21T02:33:05.843Z,944.2
2017-02-21T02:34:13.980Z,944.1
2017-02-21T02:35:22.027Z,944.1
2017-02-21T02:36:30.196Z,944.1
2017-02-21T02:37:38.249Z,944.1
2017-02-21T02:38:46.286Z,944.1
2017-02-21T02:39:54.383Z,944.1
2017-02-21T02:41:02.469Z,944.0
2017-02-21T02:42:10.563Z,944.1
2017-02-21T02:43:18.770Z,944.0
2017-02-21T02:44:26.739Z,944.0
2017-02-21T02:45:34.830Z,944.0
2017-02-21T02:46:42.943Z,944.0
2017-02-21T02:47:51.015Z,944.0
2017-02-21T02:48:59.159Z,944.0
2017-02-21T02:50:07.246Z,944.0
2017-02-21T02:51:15.286Z,944.0
2017-02-21T02:52:23.373Z,944.0
2017-02-21T02:53:31.459Z,944.0
2017-02-21T02:54:39.669Z,943.9
2017-02-21T02:55:47.639Z,943.9
2017-02-21T02:56:55.794Z,944.0
2017-02-21T02:58:03.880Z,943.9
2017-02-21T02:59:11.932Z,943.9
2017-02-21T03:00:20.045Z,943.9
2017-02-21T03:01:28.076Z,943.9
2017-02-21T03:02:36.162Z,943.9
2017-02-21T03:03:44.255Z,943.9
2017-02-21T03:04:52.350Z,943.9
2017-02-21T03:06:00.551Z,943.9
2017-02-21T03:07:08.521Z,943.9
2017-02-21T03:08:16.623Z,943.8
2017-02-21T03:09:24.697Z,943.8
2017-02-21T03:10:32.784Z,943.7
2017-02-21T03:11:40.928Z,943.7
2017-02-21T03:12:49.026Z,943.8
2017-02-21T03:13:57.049Z,943.7
2017-02-21T03:15:05.143Z,943.8
2017-02-21T03:16:13.231Z,943.7
2017-02-21T03:17:21.435Z,943.7
2017-02-21T03:18:29.406Z,943.6
2017-02-21T03:19:37.530Z,943.5
2017-02-21T03:20:45.592Z,943.5
2017-02-21T03:21:53.732Z,943.7
2017-02-21T03:23:01.935Z,943.7
2017-02-21T03:24:09.857Z,943.8
2017-02-21T03:25:17.942Z,943.7
2017-02-21T03:26:26.037Z,943.7
2017-02-21T03:27:34.123Z,943.7
2017-02-21T03:28:42.514Z,943.7
2017-02-21T03:29:50.298Z,943.7
2017-02-21T03:30:58.387Z,943.6
2017-02-21T03:32:06.477Z,943.6
2017-02-21T03:33:14.565Z,943.6
2017-02-21T03:34:22.784Z,943.6
2017-02-21T03:35:30.741Z,943.6
2017-02-21T03:36:38.827Z,943.6
2017-02-21T03:37:46.970Z,943.6
2017-02-21T03:38:55.021Z,943.6
2017-02-21T03:40:03.145Z,943.6
2017-02-21T03:41:11.174Z,943.6
2017-02-21T03:42:19.268Z,943.5
2017-02-21T03:43:27.355Z,943.5
2017-02-21T03:44:35.449Z,943.4
2017-02-21T03:45:43.588Z,943.4
2017-02-21T03:46:51.623Z,943.4
2017-02-21T03:47:59.715Z,943.4
2017-02-21T03:49:07.796Z,943.4
2017-02-21T03:50:15.888Z,943.4
2017-02-21T03:51:24.098Z,943.4
2017-02-21T03:52:32.063Z,943.4
2017-02-21T03:53:40.206Z,943.4
2017-02-21T03:54:48.245Z,943.4
2017-02-21T03:55:56.337Z,943.4
2017-02-21T03:57:04.479Z,943.3
2017-02-21T03:58:12.510Z,943.3
2017-02-21T03:59:20.605Z,943.4
2017-02-21T04:00:28.739Z,943.4
2017-02-21T04:01:36.846Z,943.4
2017-02-21T04:02:44.992Z,943.4
2017-02-21T04:03:52.966Z,943.4
2017-02-21T04:05:01.055Z,943.3
2017-02-21T04:06:09.325Z,943.2
2017-02-21T04:07:17.237Z,943.3
2017-02-21T04:08:25.450Z,943.3
2017-02-21T04:09:33.497Z,943.2
2017-02-21T04:10:41.508Z,943.2
2017-02-21T04:11:49.614Z,943.2
2017-02-21T04:12:57.685Z,943.1
2017-02-21T04:14:05.837Z,943.1
2017-02-21T04:15:13.874Z,943.0
2017-02-21T04:16:22.025Z,943.0
2017-02-21T04:17:30.050Z,943.1
2017-02-21T04:18:38.139Z,943.1
2017-02-21T04:19:46.353Z,943.0
2017-02-21T04:20:54.308Z,943.0
2017-02-21T04:22:02.424Z,943.0
2017-02-21T04:23:10.500Z,943.0
2017-02-21T04:24:18.586Z,942.9
2017-02-21T04:25:26.732Z,942.9
2017-02-21T04:26:34.866Z,942.9
2017-02-21T04:27:42.850Z,942.9
2017-02-21T04:28:50.934Z,942.9
2017-02-21T04:29:59.032Z,943.0
2017-02-21T04:31:07.407Z,942.9
2017-02-21T04:32:15.211Z,942.9
2017-02-21T04:33:23.302Z,943.0
2017-02-21T04:34:31.396Z,943.0
2017-02-21T04:35:39.483Z,942.9
2017-02-21T04:36:47.685Z,943.0
2017-02-21T04:37:55.703Z,943.0
2017-02-21T04:39:03.744Z,943.1
2017-02-21T04:40:11.831Z,943.0
2017-02-21T04:41:19.981Z,943.1
2017-02-21T04:42:28.280Z,943.1
2017-02-21T04:43:36.106Z,943.0
2017-02-21T04:44:44.188Z,943.0
2017-02-21T04:45:52.284Z,943.0
2017-02-21T04:47:00.373Z,942.9
2017-02-21T04:48:08.611Z,943.0
2017-02-21T04:49:16.549Z,943.0
2017-02-21T04:50:24.639Z,943.0
2017-02-21T04:51:32.722Z,943.0
2017-02-21T04:52:40.811Z,943.0
2017-02-21T04:53:49.027Z,943.0
2017-02-21T04:54:56.995Z,943.0
2017-02-21T04:56:05.078Z,943.1
2017-02-21T04:57:13.225Z,943.1
2017-02-21T04:58:21.454Z,943.1
2017-02-21T04:59:29.401Z,943.0
2017-02-21T05:00:37.440Z,943.0
2017-02-21T05:01:45.524Z,943.0
2017-02-21T05:02:53.609Z,943.0
2017-02-21T05:04:01.741Z,943.0
2017-02-21T05:05:09.971Z,943.0
2017-02-21T05:06:17.876Z,943.0
2017-02-21T05:07:25.968Z,943.0
2017-02-21T05:08:34.057Z,943.0
2017-02-21T05:09:42.156Z,943.0
2017-02-21T05:10:50.293Z,943.0
2017-02-21T05:11:58.318Z,943.0
2017-02-21T05:13:06.534Z,943.0
2017-02-21T05:14:14.503Z,942.9
2017-02-21T05:15:22.668Z,942.9
2017-02-21T05:16:30.736Z,942.9
2017-02-21T05:17:38.775Z,942.9
2017-02-21T05:18:46.863Z,943.0
2017-02-21T05:19:54.946Z,943.0
2017-02-21T05:21:03.036Z,943.0
2017-02-21T05:22:11.187Z,942.9
2017-02-21T05:23:19.216Z,942.9
2017-02-21T05:24:27.304Z,942.8
2017-02-21T05:25:35.485Z,942.9
2017-02-21T05:26:43.544Z,942.9
2017-02-21T05:27:51.682Z,942.8
2017-02-21T05:28:59.717Z,942.8
2017-02-21T05:30:07.947Z,942.7
2017-02-21T05:31:16.028Z,942.8
2017-02-21T05:32:23.926Z,942.8
2017-02-21T05:33:32.133Z,942.8
2017-02-21T05:34:40.110Z,942.8
2017-02-21T05:35:48.192Z,942.8
2017-02-21T05:36:56.391Z,942.8
2017-02-21T05:38:04.375Z,942.9
2017-02-21T05:39:12.513Z,942.8
2017-02-21T05:40:20.552Z,942.8
2017-02-21T05:41:29.077Z,942.9
2017-02-21T05:42:36.730Z,942.8
2017-02-21T05:43:44.815Z,942.9
2017-02-21T05:44:53.032Z,942.9
2017-02-21T05:46:00.998Z,942.9
2017-02-21T05:47:09.091Z,942.9
2017-02-21T05:48:17.216Z,942.9
2017-02-21T05:49:25.269Z,942.9
2017-02-21T05:50:33.411Z,943.0
2017-02-21T05:51:41.620Z,943.0
2017-02-21T05:52:49.700Z,942.9
2017-02-21T05:53:57.629Z,942.9
2017-02-21T05:55:05.715Z,943.0
2017-02-21T05:56:13.935Z,942.9
2017-02-21T05:57:22.179Z,942.9
2017-02-21T05:58:29.992Z,943.0
2017-02-21T05:59:38.649Z,942.9
2017-02-21T06:00:46.223Z,943.0
2017-02-21T06:01:55.061Z,942.9
2017-02-21T06:03:02.427Z,942.9
2017-02-21T06:04:10.911Z,943.0
2017-02-21T06:05:18.940Z,943.0
2017-02-21T06:06:26.629Z,943.0
2017-02-21T06:07:34.935Z,943.0
2017-02-21T06:08:42.810Z,943.0
2017-02-21T06:09:50.902Z,943.0
2017-02-21T06:10:58.988Z,943.0
2017-02-21T06:12:07.075Z,943.0
2017-02-21T06:13:15.283Z,942.9
2017-02-21T06:14:23.250Z,942.9
2017-02-21T06:15:31.345Z,943.0
2017-02-21T06:16:39.491Z,943.0
2017-02-21T06:17:47.805Z,943.0
2017-02-21T06:18:55.783Z,943.0
2017-02-21T06:20:03.694Z,943.0
2017-02-21T06:21:11.817Z,943.0
2017-02-21T06:22:19.873Z,943.0
2017-02-21T06:23:27.959Z,942.9
2017-02-21T06:24:36.114Z,942.9
2017-02-21T06:25:44.151Z,942.9
2017-02-21T06:26:52.239Z,942.9
2017-02-21T06:28:00.328Z,942.9
2017-02-21T06:29:08.450Z,942.9
2017-02-21T06:30:16.575Z,942.9
2017-02-21T06:31:24.599Z,942.8
2017-02-21T06:32:32.810Z,942.8
2017-02-21T06:33:40.949Z,942.8
2017-02-21T06:34:48.932Z,942.9
2017-02-21T06:35:57.016Z,942.9
2017-02-21T06:37:05.050Z,942.9
2017-02-21T06:38:13.140Z,943.0
2017-02-21T06:39:21.231Z,943.0
2017-02-21T06:40:29.360Z,943.0
2017-02-21T06:41:37.456Z,943.0
2017-02-21T06:42:46.175Z,943.0
2017-02-21T06:43:53.579Z,943.1
2017-02-21T06:45:01.848Z,943.1
2017-02-21T06:47:17.969Z,943.0
2017-02-21T06:48:25.996Z,943.0
2017-02-21T06:49:34.030Z,943.0
2017-02-21T06:50:42.112Z,943.0
2017-02-21T06:51:50.203Z,943.1
2017-02-21T06:52:58.350Z,943.1
2017-02-21T06:54:06.526Z,943.1
2017-02-21T06:55:14.465Z,943.2
2017-02-21T06:56:22.551Z,943.2
2017-02-21T06:57:30.641Z,943.2
2017-02-21T06:58:38.844Z,943.2
2017-02-21T06:59:46.820Z,943.3
2017-02-21T07:00:54.906Z,943.3
2017-02-21T07:02:02.990Z,943.3
2017-02-21T07:03:11.080Z,943.2
2017-02-21T07:04:19.286Z,943.1
2017-02-21T07:05:27.260Z,943.1
2017-02-21T07:06:35.343Z,943.1
2017-02-21T07:07:43.430Z,943.1
2017-02-21T07:08:51.523Z,943.1
2017-02-21T07:09:59.716Z,943.1
2017-02-21T07:11:08.036Z,943.1
2017-02-21T07:12:15.787Z,943.1
2017-02-21T07:13:24.466Z,943.1
2017-02-21T07:14:31.977Z,943.1
2017-02-21T07:15:40.174Z,943.1
2017-02-21T07:16:48.138Z,943.1
2017-02-21T07:17:56.227Z,943.1
2017-02-21T07:19:04.501Z,943.1
2017-02-21T07:20:12.463Z,943.1
2017-02-21T07:21:20.618Z,943.2
2017-02-21T07:22:28.589Z,943.2
2017-02-21T07:23:36.687Z,943.1
2017-02-21T07:24:44.785Z,943.2
2017-02-21T07:25:52.868Z,943.2
2017-02-21T07:27:01.026Z,943.2
2017-02-21T07:28:09.055Z,943.2
2017-02-21T07:29:17.149Z,943.2
2017-02-21T07:30:25.264Z,943.2
2017-02-21T07:31:33.317Z,943.2
2017-02-21T07:32:41.539Z,943.3
2017-02-21T07:33:49.570Z,943.3
2017-02-21T07:34:57.744Z,943.3
2017-02-21T07:36:05.742Z,943.3
2017-02-21T07:37:13.771Z,943.3
2017-02-21T07:38:21.922Z,943.3
2017-02-21T07:39:29.971Z,943.3
2017-02-21T07:40:38.053Z,943.4
2017-02-21T07:41:46.143Z,943.3
2017-02-21T07:42:54.233Z,943.4
2017-02-21T07:44:02.443Z,943.4
2017-02-21T07:45:10.554Z,943.4
2017-02-21T07:46:18.495Z,943.3
2017-02-21T07:47:26.584Z,943.3
2017-02-21T07:48:34.673Z,943.4
2017-02-21T07:49:42.812Z,943.4
2017-02-21T07:50:50.909Z,943.4
2017-02-21T07:51:58.992Z,943.4
2017-02-21T07:53:07.022Z,943.3
2017-02-21T07:54:15.114Z,943.3
2017-02-21T07:55:23.258Z,943.3
2017-02-21T07:56:31.396Z,943.3
2017-02-21T07:57:39.380Z,943.3
2017-02-21T07:58:47.474Z,943.3
2017-02-21T07:59:55.567Z,943.3
2017-02-21T08:01:03.708Z,943.3
2017-02-21T08:02:11.741Z,943.3
2017-02-21T08:03:19.834Z,943.2
2017-02-21T08:04:27.916Z,943.2
2017-02-21T08:05:36.012Z,943.2
2017-02-21T08:06:44.303Z,943.1
2017-02-21T08:07:52.330Z,943.0
2017-02-21T08:09:00.277Z,943.0
2017-02-21T08:10:08.372Z,943.0
2017-02-21T08:11:16.462Z,943.0
2017-02-21T08:12:24.604Z,943.0
2017-02-21T08:13:32.629Z,943.0
2017-02-21T08:14:40.726Z,943.0
2017-02-21T08:15:48.816Z,943.0
2017-02-21T08:16:56.910Z,943.0
2017-02-21T08:18:05.123Z,943.0
2017-02-21T08:19:13.091Z,943.0
2017-02-21T08:20:21.179Z,943.0
2017-02-21T08:21:29.266Z,943.0
2017-02-21T08:22:37.483Z,943.0
2017-02-21T08:23:45.574Z,943.0
2017-02-21T08:24:53.539Z,943.0
2017-02-21T08:26:01.628Z,943.1
2017-02-21T08:27:09.713Z,943.0
2017-02-21T08:28:17.798Z,943.0
2017-02-21T08:29:26.019Z,943.0
2017-02-21T08:30:33.995Z,942.9
2017-02-21T08:31:42.078Z,942.9
2017-02-21T08:32:50.224Z,942.9
2017-02-21T08:33:58.307Z,943.0
2017-02-21T08:35:06.521Z,943.0
2017-02-21T08:36:14.429Z,943.0
2017-02-21T08:37:22.710Z,943.0
2017-02-21T08:38:30.778Z,943.0
2017-02-21T08:39:38.750Z,943.0
2017-02-21T08:40:46.905Z,943.0
2017-02-21T08:41:54.876Z,943.0
2017-02-21T08:43:02.971Z,943.0
2017-02-21T08:44:11.046Z,943.0
2017-02-21T08:45:19.132Z,943.0
2017-02-21T08:46:27.350Z,943.0
2017-02-21T08:47:35.320Z,943.0
2017-02-21T08:48:43.520Z,943.0
2017-02-21T08:49:51.495Z,943.0
2017-02-21T08:50:59.594Z,943.0
2017-02-21T08:52:07.790Z,943.0
2017-02-21T08:53:15.763Z,943.0
2017-02-21T08:54:23.856Z,943.0
2017-02-21T08:55:31.999Z,943.0
2017-02-21T08:56:40.029Z,943.0
2017-02-21T08:57:48.239Z,943.0
2017-02-21T08:58:56.208Z,943.0
2017-02-21T09:00:04.386Z,943.0
2017-02-21T09:01:12.381Z,943.0
2017-02-21T09:02:20.470Z,943.0
2017-02-21T09:03:28.617Z,943.0
2017-02-21T09:04:36.646Z,943.0
2017-02-21T09:05:44.738Z,943.0
2017-02-21T09:06:52.827Z,943.0
2017-02-21T09:08:00.916Z,943.0
2017-02-21T09:09:09.124Z,943.0
2017-02-21T09:10:17.092Z,943.0
2017-02-21T09:11:25.236Z,943.0
2017-02-21T09:12:33.266Z,943.0
2017-02-21T09:13:41.361Z,943.0
2017-02-21T09:14:49.570Z,943.0
2017-02-21T09:15:57.727Z,943.0
2017-02-21T09:17:05.631Z,943.1
2017-02-21T09:18:13.715Z,943.1
2017-02-21T09:19:21.805Z,943.1
2017-02-21T09:20:29.949Z,943.1
2017-02-21T09:21:37.988Z,943.1
2017-02-21T09:22:46.074Z,943.1
2017-02-21T09:23:54.172Z,943.1
2017-02-21T09:25:02.260Z,943.1
2017-02-21T09:26:10.547Z,943.2
2017-02-21T09:27:18.491Z,943.2
2017-02-21T09:28:26.522Z,943.2
2017-02-21T09:29:34.618Z,943.2
2017-02-21T09:30:42.705Z,943.3
2017-02-21T09:31:50.849Z,943.2
2017-02-21T09:32:58.879Z,943.2
2017-02-21T09:34:06.971Z,943.2
2017-02-21T09:35:15.062Z,943.2
2017-02-21T09:36:23.180Z,943.2
2017-02-21T09:37:31.376Z,943.2
2017-02-21T09:38:39.330Z,943.2
2017-02-21T09:39:47.410Z,943.2
2017-02-21T09:40:55.695Z,943.2
2017-02-21T09:42:03.762Z,943.2
2017-02-21T09:43:11.795Z,943.2
2017-02-21T09:44:19.767Z,943.2
2017-02-21T09:46:35.950Z,943.2
2017-02-21T09:47:44.040Z,943.2
2017-02-21T09:48:52.249Z,943.2
2017-02-21T09:50:00.404Z,943.2
2017-02-21T09:51:08.304Z,943.3
2017-02-21T09:52:16.571Z,943.3
2017-02-21T09:53:24.486Z,943.3
2017-02-21T09:54:32.695Z,943.4
2017-02-21T09:55:40.657Z,943.4
2017-02-21T09:56:48.752Z,943.4
2017-02-21T09:57:56.851Z,943.4
2017-02-21T09:59:05.002Z,943.4
2017-02-21T10:00:13.153Z,943.4
2017-02-21T10:01:21.129Z,943.4
2017-02-21T10:02:29.225Z,943.4
2017-02-21T10:03:37.310Z,943.4
2017-02-21T10:04:45.400Z,943.4
2017-02-21T10:05:53.544Z,943.4
2017-02-21T10:07:01.570Z,943.4
2017-02-21T10:08:09.906Z,943.4
2017-02-21T10:09:17.762Z,943.4
2017-02-21T10:10:25.853Z,943.5
2017-02-21T10:11:34.064Z,943.5
2017-02-21T10:12:42.027Z,943.4
2017-02-21T10:13:50.118Z,943.4
2017-02-21T10:14:58.326Z,943.4
2017-02-21T10:16:06.309Z,943.4
2017-02-21T10:17:14.454Z,943.5
2017-02-21T10:18:22.658Z,943.5
2017-02-21T10:19:30.619Z,943.4
2017-02-21T10:20:38.655Z,943.5
2017-02-21T10:21:46.744Z,943.5
2017-02-21T10:22:55.553Z,943.4
2017-02-21T10:24:02.921Z,943.4
2017-02-21T10:25:11.011Z,943.4
2017-02-21T10:26:19.102Z,943.4
2017-02-21T10:27:27.184Z,943.4
2017-02-21T10:28:35.399Z,943.5
2017-02-21T10:29:43.468Z,943.4
2017-02-21T10:30:51.518Z,943.5
2017-02-21T10:31:59.550Z,943.5
2017-02-21T10:33:07.639Z,943.4
2017-02-21T10:34:15.847Z,943.4
2017-02-21T10:35:23.810Z,943.4
2017-02-21T10:36:31.904Z,943.3
2017-02-21T10:37:40.001Z,943.4
2017-02-21T10:38:48.079Z,943.3
2017-02-21T10:39:56.277Z,943.3
2017-02-21T10:41:04.305Z,943.3
2017-02-21T10:42:12.345Z,943.3
2017-02-21T10:43:20.435Z,943.3
2017-02-21T10:44:28.527Z,943.3
2017-02-21T10:45:36.932Z,943.2
2017-02-21T10:46:44.759Z,943.3
2017-02-21T10:47:52.790Z,943.2
2017-02-21T10:49:00.888Z,943.2
2017-02-21T10:50:08.974Z,943.3
2017-02-21T10:51:17.114Z,943.3
2017-02-21T10:52:25.152Z,943.3
2017-02-21T10:53:33.884Z,943.3
2017-02-21T10:54:41.329Z,943.3
2017-02-21T10:55:49.498Z,943.4
2017-02-21T10:56:57.630Z,943.4
2017-02-21T10:58:05.596Z,943.3
2017-02-21T10:59:13.681Z,943.3
2017-02-21T11:00:21.774Z,943.3
2017-02-21T11:01:29.866Z,943.3
2017-02-21T11:02:38.083Z,943.4
2017-02-21T11:03:46.043Z,943.3
2017-02-21T11:04:54.136Z,943.3
2017-02-21T11:06:02.265Z,943.3
2017-02-21T11:07:10.347Z,943.2
2017-02-21T11:08:18.523Z,943.2
2017-02-21T11:09:26.495Z,943.2
2017-02-21T11:10:34.574Z,943.2
2017-02-21T11:11:42.816Z,943.2
2017-02-21T11:12:50.757Z,943.2
2017-02-21T11:13:58.963Z,943.2
2017-02-21T11:15:06.932Z,943.2
2017-02-21T11:16:15.028Z,943.2
2017-02-21T11:17:23.115Z,943.2
2017-02-21T11:18:31.321Z,943.2
2017-02-21T11:19:39.350Z,943.2
2017-02-21T11:20:47.386Z,943.1
2017-02-21T11:21:55.556Z,943.1
2017-02-21T11:23:03.557Z,943.1
2017-02-21T11:24:11.648Z,943.2
2017-02-21T11:25:19.852Z,943.1
2017-02-21T11:26:27.833Z,943.1
2017-02-21T11:27:36.003Z,943.2
2017-02-21T11:28:44.016Z,943.2
2017-02-21T11:29:52.102Z,943.1
2017-02-21T11:31:00.310Z,943.1
2017-02-21T11:32:08.283Z,943.1
2017-02-21T11:33:16.368Z,943.1
2017-02-21T11:34:24.507Z,943.1
2017-02-21T11:35:32.545Z,943.1
2017-02-21T11:36:40.753Z,943.1
2017-02-21T11:37:48.718Z,943.1
2017-02-21T11:38:56.808Z,943.1
2017-02-21T11:40:04.892Z,943.2
2017-02-21T11:41:12.989Z,943.1
2017-02-21T11:42:21.198Z,943.2
2017-02-21T11:43:29.173Z,943.2
2017-02-21T11:44:37.254Z,943.2
2017-02-21T11:45:45.346Z,943.2
2017-02-21T11:46:53.580Z,943.2
2017-02-21T11:48:01.652Z,943.2
2017-02-21T11:49:09.623Z,943.2
2017-02-21T11:50:17.761Z,943.2
2017-02-21T11:51:25.802Z,943.3
2017-02-21T11:52:33.890Z,943.2
2017-02-21T11:53:42.098Z,943.2
2017-02-21T11:54:50.069Z,943.3
2017-02-21T11:55:58.156Z,943.1
2017-02-21T11:57:06.334Z,943.2
2017-02-21T11:58:14.329Z,943.2
2017-02-21T11:59:22.536Z,943.2
2017-02-21T12:00:30.506Z,943.2
2017-02-21T12:01:38.590Z,943.2
2017-02-21T12:02:46.736Z,943.2
2017-02-21T12:03:54.772Z,943.1
2017-02-21T12:05:02.908Z,943.2
2017-02-21T12:06:11.068Z,943.1
2017-02-21T12:07:19.181Z,943.2
2017-02-21T12:08:27.131Z,943.2
2017-02-21T12:09:35.219Z,943.2
2017-02-21T12:10:43.369Z,943.1
2017-02-21T12:11:51.588Z,943.1
2017-02-21T12:12:59.490Z,943.1
2017-02-21T12:14:07.576Z,943.0
2017-02-21T12:15:15.671Z,943.1
2017-02-21T12:16:23.876Z,943.2
2017-02-21T12:17:31.847Z,943.1
2017-02-21T12:18:39.940Z,943.1
2017-02-21T12:19:48.029Z,943.1
2017-02-21T12:20:56.121Z,943.0
2017-02-21T12:22:04.269Z,943.0
2017-02-21T12:23:12.298Z,943.0
2017-02-21T12:24:20.391Z,943.0
2017-02-21T12:25:28.473Z,943.0
2017-02-21T12:26:36.570Z,943.0
2017-02-21T12:27:44.778Z,943.0
2017-02-21T12:28:52.744Z,943.0
2017-02-21T12:30:01.093Z,943.0
2017-02-21T12:31:08.916Z,943.0
2017-02-21T12:32:17.006Z,943.0
2017-02-21T12:33:25.152Z,943.0
2017-02-21T12:34:33.184Z,943.0
2017-02-21T12:35:41.270Z,943.0
2017-02-21T12:36:49.496Z,942.9
2017-02-21T12:37:57.573Z,943.0
2017-02-21T12:39:06.009Z,942.9
2017-02-21T12:40:13.622Z,942.9
2017-02-21T12:41:21.715Z,943.0
2017-02-21T12:42:29.813Z,942.9
2017-02-21T12:43:37.893Z,943.0
2017-02-21T12:44:46.035Z,943.0
2017-02-21T12:45:54.078Z,943.0
2017-02-21T12:47:02.169Z,943.0
2017-02-21T12:48:10.263Z,943.0
2017-02-21T12:49:18.346Z,943.0
2017-02-21T12:50:26.556Z,943.0
2017-02-21T12:51:34.578Z,943.0
2017-02-21T12:52:42.632Z,943.0
2017-02-21T12:53:50.758Z,942.9
2017-02-21T12:54:58.792Z,943.0
2017-02-21T12:56:07.023Z,943.0
2017-02-21T12:57:14.974Z,943.0
2017-02-21T12:58:23.055Z,943.1
2017-02-21T12:59:31.149Z,943.0
2017-02-21T13:00:39.409Z,943.0
2017-02-21T13:01:47.445Z,943.0
2017-02-21T13:02:55.415Z,943.0
2017-02-21T13:04:04.175Z,943.0
2017-02-21T13:05:11.585Z,943.0
2017-02-21T13:06:19.676Z,943.0
2017-02-21T13:07:27.930Z,943.0
2017-02-21T13:08:35.850Z,943.0
2017-02-21T13:09:44.064Z,943.0
2017-02-21T13:10:52.037Z,943.0
2017-02-21T13:12:00.123Z,943.0
2017-02-21T13:13:08.329Z,943.1
2017-02-21T13:14:16.301Z,943.0
2017-02-21T13:15:24.384Z,943.0
2017-02-21T13:16:32.471Z,943.0
2017-02-21T13:17:40.634Z,943.0
2017-02-21T13:18:48.829Z,943.0
2017-02-21T13:19:56.738Z,943.0
2017-02-21T13:21:04.828Z,943.0
2017-02-21T13:22:12.921Z,943.0
2017-02-21T13:23:21.206Z,943.0
2017-02-21T13:24:29.456Z,943.0
2017-02-21T13:25:37.246Z,943.0
2017-02-21T13:26:45.276Z,943.0
2017-02-21T13:27:53.360Z,943.0
2017-02-21T13:29:01.451Z,943.0
2017-02-21T13:30:09.662Z,943.0
2017-02-21T13:31:17.625Z,943.0
2017-02-21T13:32:25.716Z,943.0
2017-02-21T13:33:33.961Z,943.0
2017-02-21T13:34:41.959Z,942.9
2017-02-21T13:35:50.104Z,942.9
2017-02-21T13:36:58.078Z,942.9
2017-02-21T13:38:06.161Z,942.9
2017-02-21T13:39:14.255Z,942.9
2017-02-21T13:40:22.340Z,942.9
2017-02-21T13:41:30.552Z,942.9
2017-02-21T13:42:38.635Z,942.9
2017-02-21T13:43:46.608Z,942.9
2017-02-21T13:44:54.817Z,942.9
2017-02-21T13:46:02.790Z,942.9
2017-02-21T13:47:10.998Z,942.9
2017-02-21T13:48:18.960Z,942.9
2017-02-21T13:49:27.057Z,942.9
2017-02-21T13:50:35.199Z,942.9
2017-02-21T13:51:43.222Z,942.9
2017-02-21T13:52:51.427Z,942.9
2017-02-21T13:53:59.436Z,942.9
2017-02-21T13:55:07.604Z,942.8
2017-02-21T13:56:15.672Z,942.8
2017-02-21T13:57:23.783Z,942.8
2017-02-21T13:58:31.812Z,942.8
2017-02-21T13:59:39.841Z,942.8
2017-02-21T14:01:56.019Z,942.8
2017-02-21T14:03:04.117Z,942.8
2017-02-21T14:04:12.319Z,942.8
2017-02-21T14:05:20.323Z,942.8
2017-02-21T14:06:28.395Z,942.8
2017-02-21T14:07:36.457Z,942.9
2017-02-21T14:08:44.553Z,942.9
2017-02-21T14:09:54.146Z,942.9
2017-02-21T14:11:01.191Z,942.9
2017-02-21T14:12:08.832Z,942.9
2017-02-21T14:13:16.968Z,942.9
2017-02-21T14:14:25.001Z,942.8
2017-02-21T14:15:33.219Z,942.8
2017-02-21T14:16:41.176Z,942.9
2017-02-21T14:17:49.271Z,942.9
2017-02-21T14:18:57.352Z,942.9
2017-02-21T14:20:05.443Z,942.9
2017-02-21T14:21:13.745Z,942.9
2017-02-21T14:22:21.630Z,942.9
2017-02-21T14:23:29.737Z,942.9
2017-02-21T14:24:37.808Z,942.9
2017-02-21T14:25:45.909Z,942.9
2017-02-21T14:26:54.054Z,942.9
2017-02-21T14:28:02.081Z,942.9
2017-02-21T14:29:10.234Z,942.9
2017-02-21T14:30:18.261Z,942.8
2017-02-21T14:31:26.351Z,942.9
2017-02-21T14:32:34.995Z,942.9
2017-02-21T14:33:42.525Z,942.9
2017-02-21T14:34:50.619Z,942.9
2017-02-21T14:35:58.711Z,942.8
2017-02-21T14:37:06.797Z,942.8
2017-02-21T14:38:14.952Z,942.8
2017-02-21T14:39:22.981Z,942.7
2017-02-21T14:40:31.078Z,942.7